Time;durP1;ratioP1;P1;durP2;ratioP2;P2;SDS_P1;SDS_P2;PMS_P1;PMS_P2;Temp;Humidity;BMP_temperature;BMP_pressure;BME280_temperature;BME280_humidity;BME280_pressure;Samples;Min_cycle;Max_cycle;Signal;HPM_P1;HPM_P2
2021/12/19 00:00:52;;;;;;;;;;;;;;;14.86;67.56;101690.47;5050934;28;1729;-36
2021/12/19 00:03:37;;;;;;;;;;;;;;;14.81;67.37;101697.84;5042007;28;1778;-37
2021/12/19 00:08:50;;;;;;;;;;;;;;;14.87;68.25;101693.97;5044225;28;1570;-37
2021/12/19 00:11:17;;;;;;;;;;;;;;;14.81;68.07;101689.84;5043694;28;1080;-37
2021/12/19 00:13:43;;;;;;;;;;;;;;;14.77;67.00;101698.09;5043171;28;1968;-37
2021/12/19 00:16:10;;;;;;;;;;;;;;;14.79;68.30;101685.56;5041731;28;1710;-37
2021/12/19 00:18:37;;;;;;;;;;;;;;;14.80;67.38;101703.25;5043274;28;2093;-36
2021/12/19 00:21:04;;;;;;;;;;;;;;;14.77;67.12;101682.97;5044028;28;1960;-36
2021/12/19 00:23:31;;;;;;;;;;;;;;;14.78;67.00;101682.06;5052258;28;1073;-36
2021/12/19 00:25:59;;;;;;;;;;;;;;;14.71;68.14;101678.00;5041972;28;2096;-37
2021/12/19 00:28:26;;;;;;;;;;;;;;;14.67;66.63;101690.63;5041554;28;1826;-37
2021/12/19 00:30:52;;;;;;;;;;;;;;;14.74;67.96;101672.47;5043292;28;1884;-36
2021/12/19 00:33:19;;;;;;;;;;;;;;;14.74;68.33;101658.31;5043452;28;1632;-37
2021/12/19 00:35:45;;;;;;;;;;;;;;;14.78;67.93;101657.19;5043735;28;1783;-37
2021/12/19 00:38:12;;;;;;;;;;;;;;;14.71;68.09;101662.88;5049292;28;1977;-36
2021/12/19 00:40:38;;;;;;;;;;;;;;;14.71;67.75;101662.88;5042303;28;1882;-36
2021/12/19 00:43:09;;;;;;;;;;;;;;;14.75;66.23;101644.09;5043194;28;1507;-36
2021/12/19 00:45:39;;;;;;;;;;;;;;;14.79;67.59;101645.63;5043695;28;2313;-36
2021/12/19 00:48:06;;;;;;;;;;;;;;;14.75;66.04;101634.28;5043625;28;1969;-37
2021/12/19 00:50:34;;;;;;;;;;;;;;;14.72;67.99;101634.44;5043223;28;1707;-37
2021/12/19 00:53:00;;;;;;;;;;;;;;;14.73;67.52;101633.50;5047442;28;1016;-37
2021/12/19 00:55:28;;;;;;;;;;;;;;;14.69;67.98;101627.50;5043696;28;1606;-36
2021/12/19 00:57:55;;;;;;;;;;;;;;;14.67;68.41;101633.84;5043129;28;2254;-36
2021/12/19 01:00:25;;;;;;;;;;;;;;;14.68;67.12;101647.09;5048425;28;1782;-37
2021/12/19 01:02:54;;;;;;;;;;;;;;;14.68;67.58;101657.75;5042264;28;1613;-37
2021/12/19 01:05:21;;;;;;;;;;;;;;;14.66;67.11;101638.34;5042649;28;1078;-36
2021/12/19 01:07:47;;;;;;;;;;;;;;;14.65;66.53;101644.59;5041301;28;1790;-36
2021/12/19 01:10:14;;;;;;;;;;;;;;;14.64;66.90;101642.88;5048834;28;1925;-36
2021/12/19 01:12:40;;;;;;;;;;;;;;;14.63;67.71;101638.50;5042187;28;1563;-36
2021/12/19 01:15:07;;;;;;;;;;;;;;;14.66;68.14;101627.69;5041152;28;1537;-36
2021/12/19 01:17:35;;;;;;;;;;;;;;;14.62;68.40;101622.59;5040609;28;1550;-37
2021/12/19 01:20:02;;;;;;;;;;;;;;;14.65;67.44;101630.41;5042800;28;1906;-36
2021/12/19 01:22:28;;;;;;;;;;;;;;;14.60;67.05;101628.00;5043384;28;1087;-37
2021/12/19 01:24:55;;;;;;;;;;;;;;;14.68;66.43;101638.22;5047588;28;2259;-36
2021/12/19 01:27:22;;;;;;;;;;;;;;;14.70;66.60;101631.88;5042782;28;1883;-37
2021/12/19 01:29:48;;;;;;;;;;;;;;;14.69;68.04;101623.97;5041196;28;1681;-36
2021/12/19 01:32:14;;;;;;;;;;;;;;;14.62;66.49;101620.81;5040493;28;1884;-36
2021/12/19 01:34:42;;;;;;;;;;;;;;;14.65;67.34;101617.97;5041367;28;1754;-36
2021/12/19 01:37:09;;;;;;;;;;;;;;;14.64;68.04;101610.94;5044102;28;1051;-36
2021/12/19 01:39:35;;;;;;;;;;;;;;;14.66;68.17;101593.06;5048998;28;1975;-37
2021/12/19 01:42:02;;;;;;;;;;;;;;;14.61;68.12;101591.63;5040522;28;1642;-37
2021/12/19 01:44:28;;;;;;;;;;;;;;;14.63;67.64;101584.41;5040300;28;1682;-36
2021/12/19 01:46:55;;;;;;;;;;;;;;;14.64;66.84;101592.31;5038634;28;1587;-36
2021/12/19 01:49:22;;;;;;;;;;;;;;;14.61;67.63;101580.97;5041580;28;1954;-38
2021/12/19 01:51:50;;;;;;;;;;;;;;;14.62;67.73;101572.00;5042256;28;1088;-36
2021/12/19 01:54:17;;;;;;;;;;;;;;;14.69;67.34;101562.75;5049230;28;2107;-37
2021/12/19 01:56:43;;;;;;;;;;;;;;;14.70;66.37;101565.34;5041885;28;1630;-37
2021/12/19 01:59:10;;;;;;;;;;;;;;;14.72;66.21;101554.56;5043926;28;1977;-36
2021/12/19 02:01:40;;;;;;;;;;;;;;;14.66;66.91;101558.47;5044848;28;2027;-37
2021/12/19 02:04:07;;;;;;;;;;;;;;;14.61;68.06;101552.53;5042441;28;1746;-36
2021/12/19 02:06:33;;;;;;;;;;;;;;;14.60;67.31;101549.94;5042184;28;1531;-36
2021/12/19 02:09:05;;;;;;;;;;;;;;;14.68;66.79;101550.38;5042952;28;1819;-37
2021/12/19 02:11:32;;;;;;;;;;;;;;;14.64;68.00;101533.75;5041888;28;1540;-37
2021/12/19 02:13:59;;;;;;;;;;;;;;;14.62;66.80;101535.63;5039556;28;1914;-37
2021/12/19 02:16:25;;;;;;;;;;;;;;;14.57;67.88;101527.03;5041600;28;1087;-37
2021/12/19 02:18:52;;;;;;;;;;;;;;;14.57;67.34;101521.72;5040015;28;1969;-37
2021/12/19 02:21:20;;;;;;;;;;;;;;;14.62;67.34;101524.97;5041325;28;1774;-37
2021/12/19 02:23:46;;;;;;;;;;;;;;;14.64;67.48;101532.84;5051091;28;2346;-37
2021/12/19 02:26:14;;;;;;;;;;;;;;;14.62;67.49;101519.66;5042058;28;1071;-37
2021/12/19 02:28:40;;;;;;;;;;;;;;;14.62;67.63;101503.69;5039988;28;2034;-37
2021/12/19 02:31:07;;;;;;;;;;;;;;;14.57;67.94;101497.75;5040051;28;2230;-37
2021/12/19 02:33:38;;;;;;;;;;;;;;;14.59;67.06;101498.53;5041303;28;1613;-36
2021/12/19 02:36:19;;;;;;;;;;;;;;;14.60;66.99;101510.88;5042152;28;1795;-37
2021/12/19 02:49:57;;;;;;;;;;;;;;;14.57;67.57;101478.28;4983602;28;1547;-37
2021/12/19 02:52:24;;;;;;;;;;;;;;;14.54;67.55;101481.94;5017254;28;1112;-37
2021/12/19 02:54:52;;;;;;;;;;;;;;;14.48;67.29;101463.66;5051485;28;2097;-36
2021/12/19 02:57:19;;;;;;;;;;;;;;;14.49;67.62;101466.22;5045125;28;1508;-37
2021/12/19 02:59:45;;;;;;;;;;;;;;;14.54;67.86;101468.63;5047202;28;1906;-36
2021/12/19 03:04:51;;;;;;;;;;;;;;;14.53;67.20;101472.25;5063515;28;1652;-38
2021/12/19 03:07:18;;;;;;;;;;;;;;;14.48;67.95;101461.00;5054491;28;1521;-38
2021/12/19 03:10:00;;;;;;;;;;;;;;;14.48;67.78;101453.00;5062469;28;1827;-38
2021/12/19 03:12:42;;;;;;;;;;;;;;;14.51;66.80;101472.31;5062612;28;2287;-38
2021/12/19 03:18:00;;;;;;;;;;;;;;;14.52;67.87;101450.09;5061930;28;1747;-38
2021/12/19 03:20:27;;;;;;;;;;;;;;;14.59;66.36;101450.63;5063555;28;2005;-39
2021/12/19 03:22:53;;;;;;;;;;;;;;;14.54;67.36;101434.03;5064333;28;1076;-38
2021/12/19 03:25:20;;;;;;;;;;;;;;;14.47;67.13;101451.31;5065733;28;1944;-38
2021/12/19 03:27:48;;;;;;;;;;;;;;;14.50;67.67;101456.44;5064308;28;1710;-38
2021/12/19 03:30:15;;;;;;;;;;;;;;;14.52;67.26;101433.25;5064169;28;1933;-37
2021/12/19 03:32:41;;;;;;;;;;;;;;;14.53;67.47;101438.50;5063416;28;1676;-38
2021/12/19 03:35:08;;;;;;;;;;;;;;;14.47;67.96;101419.38;5062270;28;1826;-38
2021/12/19 03:37:34;;;;;;;;;;;;;;;14.42;67.38;101424.09;5065671;28;1079;-38
2021/12/19 03:40:09;;;;;;;;;;;;;;;14.44;67.81;101423.09;5067897;28;1931;-38
2021/12/19 03:42:37;;;;;;;;;;;;;;;14.43;68.00;101425.81;5063679;28;1647;-38
2021/12/19 03:45:06;;;;;;;;;;;;;;;14.44;66.70;101427.53;5063239;28;1618;-38
2021/12/19 03:47:33;;;;;;;;;;;;;;;14.46;67.56;101420.31;5062833;28;1808;-38
2021/12/19 03:49:59;;;;;;;;;;;;;;;14.47;67.19;101420.22;5061257;28;1625;-37
2021/12/19 03:52:25;;;;;;;;;;;;;;;14.43;67.69;101405.38;5065421;28;1154;-37
2021/12/19 03:54:52;;;;;;;;;;;;;;;14.45;67.29;101410.63;5068359;28;1747;-37
2021/12/19 03:57:18;;;;;;;;;;;;;;;14.41;67.03;101411.75;5062496;28;1550;-38
2021/12/19 03:59:47;;;;;;;;;;;;;;;14.37;67.13;101399.56;5065075;28;1906;-38
2021/12/19 04:02:22;;;;;;;;;;;;;;;14.40;66.66;101402.03;5060737;28;1553;-38
2021/12/19 04:04:49;;;;;;;;;;;;;;;14.40;66.23;101386.94;5061117;28;1765;-38
2021/12/19 04:07:16;;;;;;;;;;;;;;;14.40;67.71;101383.41;5054837;28;1927;-37
2021/12/19 04:09:42;;;;;;;;;;;;;;;14.41;66.79;101377.16;5068169;28;1583;-38
2021/12/19 04:12:09;;;;;;;;;;;;;;;14.44;66.97;101382.28;5061809;28;2296;-37
2021/12/19 04:14:36;;;;;;;;;;;;;;;14.38;67.60;101367.53;5060507;28;1879;-38
2021/12/19 04:17:02;;;;;;;;;;;;;;;14.36;66.26;101380.06;5061747;28;1586;-38
2021/12/19 04:19:30;;;;;;;;;;;;;;;14.33;66.57;101367.81;5062180;28;1906;-37
2021/12/19 04:21:57;;;;;;;;;;;;;;;14.36;67.78;101364.09;5060268;28;1253;-38
2021/12/19 04:24:24;;;;;;;;;;;;;;;14.36;66.78;101373.91;5070215;28;1748;-38
2021/12/19 04:26:50;;;;;;;;;;;;;;;14.42;67.14;101373.53;5060373;28;1790;-38
2021/12/19 04:29:17;;;;;;;;;;;;;;;14.36;66.42;101373.91;5062154;28;1572;-37
2021/12/19 04:31:43;;;;;;;;;;;;;;;14.32;67.65;101371.44;5061669;28;1643;-38
2021/12/19 04:34:10;;;;;;;;;;;;;;;14.35;67.83;101357.09;5062062;28;1078;-37
2021/12/19 04:36:41;;;;;;;;;;;;;;;14.40;67.00;101367.44;5059693;28;1558;-38
2021/12/19 04:39:31;;;;;;;;;;;;;;;14.40;66.43;101364.78;5069369;28;2049;-38
2021/12/19 04:50:55;;;;;;;;;;;;;;;14.30;67.35;101356.50;5059870;28;1499;-38
2021/12/19 04:53:19;;;;;;;;;;;;;;;14.39;67.33;101363.09;5059920;28;751;-38
2021/12/19 04:56:15;;;;;;;;;;;;;;;14.39;67.68;101365.75;5060157;28;1808;-38
2021/12/19 05:05:04;;;;;;;;;;;;;;;14.36;67.43;101360.59;5106136;28;3076;-37
2021/12/19 05:15:42;;;;;;;;;;;;;;;14.38;66.96;101367.53;5108643;28;1924;-37
2021/12/19 05:18:11;;;;;;;;;;;;;;;14.33;66.17;101359.84;5108444;28;1758;-38
2021/12/19 05:20:39;;;;;;;;;;;;;;;14.32;66.62;101363.47;5108671;28;2016;-38
2021/12/19 05:23:16;;;;;;;;;;;;;;;14.31;67.15;101351.09;5109867;28;1093;-38
2021/12/19 05:25:43;;;;;;;;;;;;;;;14.29;67.10;101355.66;5108356;28;2320;-37
2021/12/19 05:28:09;;;;;;;;;;;;;;;14.30;66.84;101362.69;5108238;28;1878;-40
2021/12/19 05:30:36;;;;;;;;;;;;;;;14.36;67.36;101353.47;5107933;28;1566;-37
2021/12/19 05:33:03;;;;;;;;;;;;;;;14.37;67.23;101360.50;5107973;28;1582;-38
2021/12/19 05:35:51;;;;;;;;;;;;;;;14.29;67.07;101352.13;5108089;28;1793;-38
2021/12/19 05:46:30;;;;;;;;;;;;;;;14.33;66.70;101359.00;5109246;28;814;-38
2021/12/19 05:48:56;;;;;;;;;;;;;;;14.26;67.11;101347.81;5107978;28;1477;-38
2021/12/19 05:51:24;;;;;;;;;;;;;;;14.27;66.14;101354.88;5108232;28;1553;-37
2021/12/19 05:53:51;;;;;;;;;;;;;;;14.31;67.53;101344.91;5093023;28;2101;-37
2021/12/19 05:56:17;;;;;;;;;;;;;;;14.25;67.09;101342.63;5108056;28;1598;-38
2021/12/19 05:58:44;;;;;;;;;;;;;;;14.25;66.03;101346.13;5109284;28;1122;-37
2021/12/19 06:01:10;;;;;;;;;;;;;;;14.25;66.15;101347.94;5107338;28;1906;-39
2021/12/19 06:03:37;;;;;;;;;;;;;;;14.29;66.13;101337.03;5107936;28;1958;-38
2021/12/19 06:06:03;;;;;;;;;;;;;;;14.29;66.68;101326.38;5107732;28;1833;-38
2021/12/19 06:08:31;;;;;;;;;;;;;;;14.24;67.64;101331.09;5108848;28;1092;-38
2021/12/19 06:10:57;;;;;;;;;;;;;;;14.24;67.03;101333.75;5106763;28;1804;-38
2021/12/19 06:13:24;;;;;;;;;;;;;;;14.28;67.18;101326.47;5093541;28;2079;-37
2021/12/19 06:15:52;;;;;;;;;;;;;;;14.30;67.20;101332.56;5089481;28;1723;-37
2021/12/19 06:18:18;;;;;;;;;;;;;;;14.32;66.08;101315.56;5093937;28;1732;-37
2021/12/19 06:20:45;;;;;;;;;;;;;;;14.35;66.93;101329.63;5093902;28;1910;-37
2021/12/19 06:23:11;;;;;;;;;;;;;;;14.33;67.43;101327.06;5095272;28;1097;-37
2021/12/19 06:25:45;;;;;;;;;;;;;;;14.30;67.10;101322.78;5094148;28;1635;-37
2021/12/19 06:28:11;;;;;;;;;;;;;;;14.35;67.32;101325.16;5089097;28;1420;-38
2021/12/19 06:30:38;;;;;;;;;;;;;;;14.30;67.13;101305.94;5093443;28;1512;-38
2021/12/19 06:33:04;;;;;;;;;;;;;;;14.35;66.60;101309.19;5093435;28;1517;-38
2021/12/19 06:35:31;;;;;;;;;;;;;;;14.38;66.19;101308.16;5093335;28;1461;-38
2021/12/19 06:37:57;;;;;;;;;;;;;;;14.45;66.44;101317.50;5094398;28;1091;-37
2021/12/19 06:40:24;;;;;;;;;;;;;;;14.38;66.97;101303.69;5093071;28;1901;-37
2021/12/19 06:42:52;;;;;;;;;;;;;;;14.40;67.25;101306.25;5093283;28;1768;-38
2021/12/19 06:45:20;;;;;;;;;;;;;;;14.40;66.38;101306.25;5093174;28;1624;-38
2021/12/19 06:47:46;;;;;;;;;;;;;;;14.44;65.66;101307.78;5093361;28;1669;-38
2021/12/19 06:50:15;;;;;;;;;;;;;;;14.43;66.39;101295.44;5093301;28;1834;-38
2021/12/19 06:52:42;;;;;;;;;;;;;;;14.43;66.07;101284.78;5094466;28;1055;-37
2021/12/19 06:55:09;;;;;;;;;;;;;;;14.40;66.79;101295.63;5092991;28;1605;-38
2021/12/19 06:57:36;;;;;;;;;;;;;;;14.41;66.36;101281.38;5093071;28;1578;-37
2021/12/19 07:00:05;;;;;;;;;;;;;;;14.42;65.44;101273.28;5093500;28;1906;-39
2021/12/19 07:02:33;;;;;;;;;;;;;;;14.43;66.77;101287.47;5093722;28;1360;-38
2021/12/19 07:04:59;;;;;;;;;;;;;;;14.44;66.31;101281.16;5093177;28;1791;-38
2021/12/19 07:07:26;;;;;;;;;;;;;;;14.43;66.78;101272.34;5092678;28;1684;-39
2021/12/19 07:09:52;;;;;;;;;;;;;;;14.43;66.74;101258.19;5092931;28;1685;-38
2021/12/19 07:12:19;;;;;;;;;;;;;;;14.43;66.20;101252.88;5092709;28;1618;-38
2021/12/19 07:14:46;;;;;;;;;;;;;;;14.37;66.23;101245.25;5092751;28;1585;-38
2021/12/19 07:17:14;;;;;;;;;;;;;;;14.37;65.94;101237.28;5092753;28;1777;-38
2021/12/19 07:19:40;;;;;;;;;;;;;;;14.43;66.06;101237.75;5092461;28;1493;-38
2021/12/19 07:22:07;;;;;;;;;;;;;;;14.37;65.96;101242.59;5093900;28;1971;-38
2021/12/19 07:24:33;;;;;;;;;;;;;;;14.41;67.11;101242.31;5091546;28;1899;-37
2021/12/19 07:27:00;;;;;;;;;;;;;;;14.43;66.61;101236.91;5092376;28;1766;-38
2021/12/19 07:29:26;;;;;;;;;;;;;;;14.40;66.67;101237.91;5092558;28;1843;-38
2021/12/19 07:31:53;;;;;;;;;;;;;;;14.39;65.61;101219.41;5092335;28;2591;-38
2021/12/19 07:34:28;;;;;;;;;;;;;;;14.43;66.70;101229.75;5090786;28;1597;-38
2021/12/19 07:36:54;;;;;;;;;;;;;;;14.37;65.01;101229.28;5092983;28;1010;-38
2021/12/19 07:39:27;;;;;;;;;;;;;;;14.43;66.69;101219.13;5092391;28;1998;-37
2021/12/19 07:41:54;;;;;;;;;;;;;;;14.44;65.91;101218.19;5092046;28;1974;-39
2021/12/19 07:44:20;;;;;;;;;;;;;;;14.44;66.28;101209.31;5091988;28;1602;-38
2021/12/19 07:46:46;;;;;;;;;;;;;;;14.42;65.52;101213.88;5091975;28;1654;-38
2021/12/19 07:49:13;;;;;;;;;;;;;;;14.42;67.14;101200.59;5093291;28;1068;-38
2021/12/19 07:51:42;;;;;;;;;;;;;;;14.45;67.10;101200.41;5092155;28;2064;-38
2021/12/19 07:54:08;;;;;;;;;;;;;;;14.48;66.21;101197.53;5092204;28;2299;-37
2021/12/19 07:56:34;;;;;;;;;;;;;;;14.52;66.04;101193.75;5087592;28;1725;-38
2021/12/19 07:59:01;;;;;;;;;;;;;;;14.55;66.53;101206.00;5092830;28;1063;-38
2021/12/19 08:01:28;;;;;;;;;;;;;;;14.54;66.80;101207.78;5091379;28;1902;-38
2021/12/19 08:03:54;;;;;;;;;;;;;;;14.54;66.24;101199.81;5091828;28;1855;-38
2021/12/19 08:06:21;;;;;;;;;;;;;;;14.54;66.23;101202.47;5091864;28;1831;-38
2021/12/19 08:08:53;;;;;;;;;;;;;;;14.51;66.15;101202.69;5091750;28;1935;-38
2021/12/19 08:14:03;;;;;;;;;;;;;;;14.56;66.43;101195.28;5089884;28;1626;-38
2021/12/19 08:16:30;;;;;;;;;;;;;;;14.59;65.68;101176.47;5092782;28;1077;-38
2021/12/19 08:18:56;;;;;;;;;;;;;;;14.64;66.14;101193.03;5091507;28;2031;-38
2021/12/19 08:21:23;;;;;;;;;;;;;;;14.61;66.17;101182.56;5091521;28;1910;-38
2021/12/19 08:23:51;;;;;;;;;;;;;;;14.63;66.13;101190.44;5091561;28;1640;-38
2021/12/19 08:26:17;;;;;;;;;;;;;;;14.63;65.58;101179.81;5092527;28;1086;-39
2021/12/19 08:28:44;;;;;;;;;;;;;;;14.61;66.01;101166.59;5091754;28;1226;-38
2021/12/19 08:31:10;;;;;;;;;;;;;;;14.62;66.61;101170.97;5090883;28;1553;-38
2021/12/19 08:33:37;;;;;;;;;;;;;;;14.60;66.82;101159.53;5091090;28;1807;-38
2021/12/19 08:36:03;;;;;;;;;;;;;;;14.65;66.38;101154.78;5090703;28;1948;-37
2021/12/19 08:38:30;;;;;;;;;;;;;;;14.64;66.24;101154.88;5092518;28;1084;-38
2021/12/19 08:40:59;;;;;;;;;;;;;;;14.68;66.35;101157.28;5091259;28;1976;-38
2021/12/19 08:43:25;;;;;;;;;;;;;;;14.71;66.43;101159.72;5090884;28;1796;-38
2021/12/19 08:45:52;;;;;;;;;;;;;;;14.75;66.41;101164.88;5087505;28;1754;-38
2021/12/19 08:48:18;;;;;;;;;;;;;;;14.72;66.24;101163.22;5091135;28;1598;-38
2021/12/19 08:50:45;;;;;;;;;;;;;;;14.79;65.06;101153.06;5091233;28;1645;-37
2021/12/19 08:53:11;;;;;;;;;;;;;;;14.82;64.73;101158.19;5092367;28;1026;-38
2021/12/19 08:55:38;;;;;;;;;;;;;;;14.79;65.54;101161.06;5090628;28;1518;-37
2021/12/19 08:58:06;;;;;;;;;;;;;;;14.78;65.73;101151.34;5090813;28;1647;-37
2021/12/19 09:00:33;;;;;;;;;;;;;;;14.80;66.43;101147.66;5090490;28;1905;-38
2021/12/19 09:03:00;;;;;;;;;;;;;;;14.82;65.26;101158.19;5092087;28;1449;-38
2021/12/19 09:05:28;;;;;;;;;;;;;;;14.83;64.81;101162.56;5090871;28;2005;-37
2021/12/19 09:07:55;;;;;;;;;;;;;;;14.84;65.27;101133.19;5092163;28;1079;-38
2021/12/19 09:10:22;;;;;;;;;;;;;;;14.87;65.02;101124.13;5091054;28;1804;-39
2021/12/19 09:12:49;;;;;;;;;;;;;;;14.86;65.17;101122.41;5090688;28;1645;-40
2021/12/19 09:15:17;;;;;;;;;;;;;;;14.85;65.14;101110.06;5090566;28;1690;-38
2021/12/19 09:17:43;;;;;;;;;;;;;;;14.84;66.02;101109.22;5090800;28;1627;-38
2021/12/19 09:20:11;;;;;;;;;;;;;;;14.85;64.72;101104.75;5090750;28;1946;-38
2021/12/19 09:22:38;;;;;;;;;;;;;;;14.86;64.64;101114.41;5092015;28;1976;-38
2021/12/19 09:25:05;;;;;;;;;;;;;;;14.86;64.78;101102.00;5090824;28;2038;-38
2021/12/19 09:27:32;;;;;;;;;;;;;;;14.87;66.13;101100.16;5090508;28;1605;-38
2021/12/19 09:29:58;;;;;;;;;;;;;;;14.89;65.63;101095.59;5090767;28;1831;-38
2021/12/19 09:32:27;;;;;;;;;;;;;;;14.94;64.63;101084.63;5090380;28;1423;-38
2021/12/19 09:34:53;;;;;;;;;;;;;;;14.91;66.20;101086.53;5090878;28;1604;-38
2021/12/19 09:37:20;;;;;;;;;;;;;;;14.96;64.85;101090.72;5092029;28;1052;-38
2021/12/19 09:39:49;;;;;;;;;;;;;;;14.93;65.24;101070.47;5090753;28;1944;-39
2021/12/19 09:42:19;;;;;;;;;;;;;;;14.96;64.67;101056.09;5090124;28;1910;-38
2021/12/19 09:44:46;;;;;;;;;;;;;;;14.94;64.45;101055.34;5090834;28;1868;-37
2021/12/19 09:47:12;;;;;;;;;;;;;;;14.92;65.73;101047.44;5092097;28;1542;-38
2021/12/19 09:49:40;;;;;;;;;;;;;;;14.94;66.47;101045.56;5094629;28;1772;-38
2021/12/19 09:52:09;;;;;;;;;;;;;;;14.91;66.02;101037.78;5095773;28;1128;-38
2021/12/19 09:54:36;;;;;;;;;;;;;;;14.95;64.70;101041.09;5094310;28;1989;-38
2021/12/19 09:57:03;;;;;;;;;;;;;;;14.91;64.63;101027.13;5093929;28;1536;-37
2021/12/19 09:59:29;;;;;;;;;;;;;;;14.96;64.25;101021.47;5095357;28;1133;-38
2021/12/19 10:01:56;;;;;;;;;;;;;;;14.93;66.00;101019.88;5094063;28;1910;-38
2021/12/19 10:04:40;;;;;;;;;;;;;;;14.91;64.97;101001.34;5093798;28;1737;-39
2021/12/19 10:07:12;;;;;;;;;;;;;;;14.91;66.10;101003.16;5094097;28;1617;-38
2021/12/19 10:09:42;;;;;;;;;;;;;;;14.93;65.21;101003.91;5093832;28;1610;-38
2021/12/19 10:12:25;;;;;;;;;;;;;;;14.94;65.94;100994.09;5085246;28;1449;-38
2021/12/19 10:14:52;;;;;;;;;;;;;;;14.95;66.04;100991.34;5085578;28;1598;-38
2021/12/19 10:17:20;;;;;;;;;;;;;;;14.98;65.35;100977.81;5093698;28;1739;-38
2021/12/19 10:19:48;;;;;;;;;;;;;;;14.99;64.65;100986.66;5093706;28;1654;-38
2021/12/19 10:22:29;;;;;;;;;;;;;;;15.00;65.84;100983.91;5094860;28;1906;-38
2021/12/19 10:24:57;;;;;;;;;;;;;;;15.05;65.88;100987.09;5093429;28;1561;-38
2021/12/19 10:27:33;;;;;;;;;;;;;;;15.04;65.85;100977.41;5093836;28;1738;-38
2021/12/19 10:30:00;;;;;;;;;;;;;;;15.06;64.45;100983.47;5093591;28;1993;-38
2021/12/19 10:32:26;;;;;;;;;;;;;;;15.06;64.53;100977.28;5093795;28;1704;-37
2021/12/19 10:35:12;;;;;;;;;;;;;;;15.04;65.41;100977.41;5094995;28;1771;-38
2021/12/19 10:37:41;;;;;;;;;;;;;;;15.04;65.83;100988.06;5095473;28;1010;-37
2021/12/19 10:40:08;;;;;;;;;;;;;;;15.07;64.33;100973.66;5093474;28;1977;-38
2021/12/19 10:42:43;;;;;;;;;;;;;;;15.04;65.04;100966.75;5093455;28;1909;-38
2021/12/19 10:48:08;;;;;;;;;;;;;;;15.05;64.30;100936.47;5093583;28;1620;-38
2021/12/19 10:50:41;;;;;;;;;;;;;;;15.03;65.60;100922.41;5093319;28;1801;-38
2021/12/19 10:53:09;;;;;;;;;;;;;;;15.09;64.71;100942.47;5094199;28;1130;-38
2021/12/19 10:55:36;;;;;;;;;;;;;;;15.04;64.50;100929.47;5093001;28;1545;-38
2021/12/19 10:58:02;;;;;;;;;;;;;;;15.02;64.80;100920.72;5092915;28;1901;-38
2021/12/19 11:00:29;;;;;;;;;;;;;;;15.01;64.45;100895.03;5092766;28;1865;-38
2021/12/19 11:02:56;;;;;;;;;;;;;;;14.97;64.64;100890.91;5092456;28;1909;-38
2021/12/19 11:05:35;;;;;;;;;;;;;;;14.99;65.04;100888.13;5094046;28;1187;-38
2021/12/19 11:08:02;;;;;;;;;;;;;;;14.98;65.58;100868.66;5093809;28;1135;-38
2021/12/19 11:10:30;;;;;;;;;;;;;;;15.01;65.39;100876.41;5092703;28;1820;-38
2021/12/19 11:13:07;;;;;;;;;;;;;;;14.95;66.23;100866.19;5093024;28;2304;-38
2021/12/19 11:15:34;;;;;;;;;;;;;;;14.95;64.70;100860.00;5092984;28;1583;-38
2021/12/19 11:18:01;;;;;;;;;;;;;;;14.94;65.74;100856.50;5092689;28;1694;-38
2021/12/19 11:20:28;;;;;;;;;;;;;;;14.95;66.18;100850.19;5092418;28;1657;-38
2021/12/19 11:22:54;;;;;;;;;;;;;;;14.97;66.22;100842.13;5093466;28;1905;-38
2021/12/19 11:25:21;;;;;;;;;;;;;;;14.98;65.03;100827.81;5092681;28;2163;-38
2021/12/19 11:27:49;;;;;;;;;;;;;;;14.99;65.71;100819.75;5092305;28;1799;-39
2021/12/19 11:30:18;;;;;;;;;;;;;;;15.04;64.36;100811.41;5092609;28;1895;-38
2021/12/19 11:32:50;;;;;;;;;;;;;;;15.06;64.65;100804.16;5091901;28;1674;-38
2021/12/19 11:35:19;;;;;;;;;;;;;;;15.08;64.31;100813.78;5092092;28;1647;-37
2021/12/19 11:37:50;;;;;;;;;;;;;;;15.08;64.61;100803.13;5093612;28;1001;-38
2021/12/19 11:40:17;;;;;;;;;;;;;;;15.07;65.25;100788.09;5092270;28;1462;-38
2021/12/19 11:42:44;;;;;;;;;;;;;;;15.09;64.30;100787.97;5092219;28;1902;-38
2021/12/19 11:45:34;;;;;;;;;;;;;;;15.03;64.53;100777.78;5091879;28;1806;-38
2021/12/19 11:48:08;;;;;;;;;;;;;;;15.09;65.06;100775.50;5092190;28;1646;-38
2021/12/19 11:50:36;;;;;;;;;;;;;;;15.16;64.90;100777.72;5091842;28;1635;-38
2021/12/19 11:53:17;;;;;;;;;;;;;;;15.15;64.05;100768.06;5093149;28;1135;-38
2021/12/19 11:55:45;;;;;;;;;;;;;;;15.11;64.36;100768.25;5091445;28;1862;-38
2021/12/19 11:58:27;;;;;;;;;;;;;;;15.16;64.20;100780.41;5091991;28;1508;-38
2021/12/19 12:00:55;;;;;;;;;;;;;;;15.17;65.10;100768.78;5078324;28;2310;-38
2021/12/19 12:03:24;;;;;;;;;;;;;;;15.10;64.17;100752.41;5091578;28;1914;-38
2021/12/19 12:05:51;;;;;;;;;;;;;;;15.14;64.57;100753.88;5091942;28;1536;-38
2021/12/19 12:08:18;;;;;;;;;;;;;;;15.17;65.25;100743.00;5092957;28;1027;-38
2021/12/19 12:11:03;;;;;;;;;;;;;;;15.12;64.46;100745.16;5091229;28;1866;-38
2021/12/19 12:13:31;;;;;;;;;;;;;;;15.09;64.32;100732.91;5089472;28;1859;-38
2021/12/19 12:16:04;;;;;;;;;;;;;;;15.11;65.25;100716.81;5091420;28;2048;-38
2021/12/19 12:18:33;;;;;;;;;;;;;;;15.15;64.06;100714.78;5091445;28;1814;-38
2021/12/19 12:21:19;;;;;;;;;;;;;;;15.06;64.27;100719.81;5091568;28;1446;-38
2021/12/19 12:23:51;;;;;;;;;;;;;;;15.13;65.82;100698.06;5091054;28;1906;-38
2021/12/19 12:26:25;;;;;;;;;;;;;;;15.11;64.33;100696.34;5092347;28;1066;-38
2021/12/19 12:28:52;;;;;;;;;;;;;;;15.18;64.70;100714.53;5091701;28;1069;-37
2021/12/19 12:31:19;;;;;;;;;;;;;;;15.14;65.44;100705.06;5091384;28;1669;-38
2021/12/19 12:33:47;;;;;;;;;;;;;;;15.14;64.34;100691.75;5091512;28;1854;-38
2021/12/19 12:36:15;;;;;;;;;;;;;;;15.09;64.85;100695.59;5087254;28;1438;-38
2021/12/19 12:38:45;;;;;;;;;;;;;;;15.09;65.53;100690.28;5091805;28;1776;-38
2021/12/19 12:41:26;;;;;;;;;;;;;;;15.07;65.21;100670.91;5091604;28;1039;-38
2021/12/19 12:43:52;;;;;;;;;;;;;;;15.06;64.54;100681.66;5091430;28;1967;-38
2021/12/19 12:46:20;;;;;;;;;;;;;;;15.08;65.00;100671.75;5091632;28;2081;-38
2021/12/19 12:48:58;;;;;;;;;;;;;;;15.08;64.92;100663.75;5090892;28;1683;-39
2021/12/19 12:51:26;;;;;;;;;;;;;;;15.62;63.00;100655.28;5090872;28;2092;-38
2021/12/19 12:53:53;;;;;;;;;;;;;;;15.71;63.77;100635.91;5072749;28;1952;-39
2021/12/19 12:56:22;;;;;;;;;;;;;;;15.73;62.72;100645.66;5089043;28;1696;-39
2021/12/19 12:58:49;;;;;;;;;;;;;;;15.88;63.18;100642.66;5091966;28;1077;-38
2021/12/19 13:01:17;;;;;;;;;;;;;;;15.91;62.78;100636.25;5090814;28;1790;-38
2021/12/19 13:04:11;;;;;;;;;;;;;;;16.00;63.52;100640.03;5090937;28;1909;-39
2021/12/19 13:06:55;;;;;;;;;;;;;;;16.09;62.72;100634.84;5085168;28;1719;-38
2021/12/19 13:09:27;;;;;;;;;;;;;;;16.15;62.55;100638.81;5091075;28;1868;-38
2021/12/19 13:12:01;;;;;;;;;;;;;;;16.21;63.05;100632.16;5090796;28;1713;-38
2021/12/19 13:14:28;;;;;;;;;;;;;;;16.36;61.68;100628.28;5090807;28;1559;-38
2021/12/19 13:16:55;;;;;;;;;;;;;;;16.44;61.16;100620.53;5090998;28;1735;-39
2021/12/19 13:19:37;;;;;;;;;;;;;;;16.48;61.54;100624.63;5091198;28;1852;-39
2021/12/19 13:22:04;;;;;;;;;;;;;;;16.63;61.92;100609.22;5080427;28;2063;-38
2021/12/19 13:24:34;;;;;;;;;;;;;;;16.75;61.21;100619.88;5094551;28;1710;-38
2021/12/19 13:27:08;;;;;;;;;;;;;;;16.92;60.45;100600.69;5094812;28;1615;-39
2021/12/19 13:29:35;;;;;;;;;;;;;;;17.03;60.36;100592.66;5094787;28;1769;-38
2021/12/19 13:32:20;;;;;;;;;;;;;;;17.20;60.23;100587.72;5094223;28;1481;-39
2021/12/19 13:34:47;;;;;;;;;;;;;;;17.23;60.19;100592.78;5091738;28;1594;-39
2021/12/19 13:37:13;;;;;;;;;;;;;;;17.25;59.87;100591.72;5096004;28;995;-38
2021/12/19 13:39:43;;;;;;;;;;;;;;;17.29;60.05;100587.78;5094348;28;1623;-38
2021/12/19 13:42:11;;;;;;;;;;;;;;;17.34;60.01;100573.19;5086029;28;2178;-39
2021/12/19 13:44:37;;;;;;;;;;;;;;;17.41;59.52;100561.88;5094762;28;1610;-39
2021/12/19 13:47:10;;;;;;;;;;;;;;;17.56;59.34;100564.19;5094561;28;1785;-39
2021/12/19 13:49:36;;;;;;;;;;;;;;;17.70;59.39;100570.03;5089936;28;1566;-39
2021/12/19 13:52:03;;;;;;;;;;;;;;;17.69;59.12;100560.34;5095539;28;1092;-39